createdAt,value
2023-04-05T00:01:42.541Z,62771.18
2023-04-05T00:02:44.567Z,62786.85
2023-04-05T00:03:46.885Z,62790.65
2023-04-05T00:04:48.966Z,62794.20
2023-04-05T00:05:53.056Z,62802.51
2023-04-05T00:06:55.378Z,62790.79
2023-04-05T00:07:58.660Z,62783.16
2023-04-05T00:09:02.499Z,62790.65
2023-04-05T00:10:05.718Z,62787.27
2023-04-05T00:11:07.730Z,62788.48
2023-04-05T00:12:09.709Z,62802.09
2023-04-05T00:13:11.636Z,62802.09
2023-04-05T00:14:15.704Z,62786.43
2023-04-05T00:15:17.702Z,62802.91
2023-04-05T00:16:20.115Z,62797.73
2023-04-05T00:17:22.333Z,62786.31
2023-04-05T00:18:25.044Z,62793.24
2023-04-05T00:19:26.921Z,62799.92
2023-04-05T00:20:29.659Z,62789.70
2023-04-05T00:21:31.557Z,62798.57
2023-04-05T00:22:33.432Z,62792.82
2023-04-05T00:23:35.376Z,62791.19
2023-04-05T00:24:38.231Z,62786.85
2023-04-05T00:25:40.247Z,62786.59
2023-04-05T00:26:42.241Z,62798.40
2023-04-05T00:27:44.469Z,62795.97
2023-04-05T00:28:47.330Z,62801.84
2023-04-05T00:29:50.158Z,62811.08
2023-04-05T00:30:52.395Z,62807.28
2023-04-05T00:31:55.530Z,62800.46
2023-04-05T00:32:57.998Z,62817.09
2023-04-05T00:33:59.935Z,62808.89
2023-04-05T00:35:01.940Z,62804.01
2023-04-05T00:36:14.072Z,62809.45
2023-04-05T00:37:17.277Z,62798.14
2023-04-05T00:38:19.271Z,62809.99
2023-04-05T00:39:21.251Z,62807.54
2023-04-05T00:40:24.546Z,62790.11
2023-04-05T00:41:27.296Z,62794.88
2023-04-05T00:42:29.188Z,62796.93
2023-04-05T00:43:31.622Z,62798.14
2023-04-05T00:44:33.797Z,62793.38
2023-04-05T00:45:35.738Z,62790.93
2023-04-05T00:46:41.153Z,62789.16
2023-04-05T00:47:44.496Z,62788.34
2023-04-05T00:48:49.286Z,62785.75
2023-04-05T00:49:51.869Z,62795.97
2023-04-05T00:50:54.428Z,62798.82
2023-04-05T00:51:57.021Z,62792.29
2023-04-05T00:52:59.331Z,62787.52
2023-04-05T00:54:02.202Z,62796.09
2023-04-05T00:55:07.434Z,62794.06
2023-04-05T00:56:10.048Z,62800.74
2023-04-05T00:57:12.759Z,62789.55
2023-04-05T00:58:19.357Z,62795.55
2023-04-05T00:59:21.460Z,62786.85
2023-04-05T01:00:26.308Z,62792.29
2023-04-05T01:01:29.742Z,62803.47
2023-04-05T01:02:34.943Z,62798.29
2023-04-05T01:03:39.055Z,62799.92
2023-04-05T01:04:41.916Z,62794.88
2023-04-05T01:05:56.734Z,62793.24
2023-04-05T01:08:46.906Z,62804.27
2023-04-05T01:10:02.013Z,62796.65
2023-04-05T01:11:06.318Z,62782.90
2023-04-05T01:12:11.277Z,62795.13
2023-04-05T01:13:16.012Z,62787.38
2023-04-05T01:14:18.521Z,62787.38
2023-04-05T01:15:20.534Z,62799.24
2023-04-05T01:16:22.559Z,62799.36
2023-04-05T01:17:26.838Z,62806.18
2023-04-05T01:18:29.080Z,62796.23
2023-04-05T01:19:31.216Z,62792.71
2023-04-05T01:20:37.238Z,62791.61
2023-04-05T01:21:45.853Z,62789.02
2023-04-05T01:25:02.821Z,62791.61
2023-04-05T01:26:25.523Z,62788.34
2023-04-05T01:27:52.130Z,62805.11
2023-04-05T01:29:26.904Z,62793.38
2023-04-05T01:30:38.667Z,62797.73
2023-04-05T01:31:47.521Z,62794.88
2023-04-05T01:34:07.433Z,62792.42
2023-04-05T01:35:22.079Z,62795.02
2023-04-05T01:36:29.215Z,62792.42
2023-04-05T01:37:34.436Z,62788.34
2023-04-05T01:38:39.388Z,62795.41
2023-04-05T01:39:42.550Z,62794.46
2023-04-05T01:40:45.324Z,62786.43
2023-04-05T01:41:47.666Z,62798.57
2023-04-05T01:42:49.555Z,62790.23
2023-04-05T01:43:51.452Z,62790.93
2023-04-05T01:44:56.492Z,62787.27
2023-04-05T01:45:58.398Z,62795.02
2023-04-05T01:47:00.527Z,62790.65
2023-04-05T01:48:02.941Z,62794.46
2023-04-05T01:49:04.975Z,62791.19
2023-04-05T01:50:08.684Z,62796.37
2023-04-05T01:51:10.664Z,62789.02
2023-04-05T01:52:13.489Z,62787.52
2023-04-05T01:53:16.887Z,62780.31
2023-04-05T01:54:18.983Z,62781.41
2023-04-05T01:55:21.014Z,62790.65
2023-04-05T01:56:24.024Z,62791.61
2023-04-05T01:57:26.160Z,62799.78
2023-04-05T01:58:28.417Z,62786.00
2023-04-05T01:59:31.159Z,62806.18
2023-04-05T02:00:33.366Z,62790.51
2023-04-05T02:01:35.395Z,62785.75
2023-04-05T02:02:37.367Z,62793.92
2023-04-05T02:03:39.859Z,62793.38
2023-04-05T02:04:42.052Z,62804.68
2023-04-05T02:05:44.370Z,62794.20
2023-04-05T02:06:46.353Z,62793.78
2023-04-05T02:07:48.464Z,62789.86
2023-04-05T02:08:50.489Z,62788.90
2023-04-05T02:09:52.603Z,62784.39
2023-04-05T02:10:54.675Z,62778.81
2023-04-05T02:11:56.650Z,62772.14
2023-04-05T02:12:58.640Z,62776.78
2023-04-05T02:14:00.686Z,62781.13
2023-04-05T02:15:02.871Z,62777.04
2023-04-05T02:16:05.350Z,62782.90
2023-04-05T02:17:07.453Z,62786.85
2023-04-05T02:18:09.521Z,62778.25
2023-04-05T02:19:11.926Z,62788.48
2023-04-05T02:20:14.292Z,62796.65
2023-04-05T02:21:16.552Z,62788.74
2023-04-05T02:22:19.100Z,62799.52
2023-04-05T02:23:21.041Z,62797.05
2023-04-05T02:24:23.077Z,62799.64
2023-04-05T02:25:25.360Z,62798.94
2023-04-05T02:26:27.442Z,62815.99
2023-04-05T02:27:29.824Z,62792.82
2023-04-05T02:28:31.721Z,62786.85
2023-04-05T02:29:33.652Z,62779.21
2023-04-05T02:30:35.619Z,62789.44
2023-04-05T02:31:37.633Z,62792.03
2023-04-05T02:32:41.551Z,62799.92
2023-04-05T02:33:44.360Z,62799.24
2023-04-05T02:34:46.325Z,62788.34
2023-04-05T02:35:53.744Z,62792.00
2023-04-05T02:36:56.031Z,62804.27
2023-04-05T02:37:58.094Z,62787.92
2023-04-05T02:39:00.128Z,62789.02
2023-04-05T02:40:08.698Z,62792.29
2023-04-05T02:41:10.691Z,62804.68
2023-04-05T02:42:12.694Z,62805.76
2023-04-05T02:43:14.929Z,62796.09
2023-04-05T02:44:17.119Z,62801.00
2023-04-05T02:45:19.074Z,62801.00
2023-04-05T02:46:21.249Z,62792.54
2023-04-05T02:47:23.257Z,62802.09
2023-04-05T02:48:25.205Z,62792.71
2023-04-05T02:49:27.156Z,62798.68
2023-04-05T02:50:29.559Z,62789.44
2023-04-05T02:51:31.530Z,62785.21
2023-04-05T02:52:33.503Z,62797.73
2023-04-05T02:53:35.494Z,62790.11
2023-04-05T02:54:37.552Z,62791.19
2023-04-05T02:55:39.835Z,62791.19
2023-04-05T02:56:41.911Z,62786.96
2023-04-05T02:57:46.355Z,62797.73
2023-04-05T02:58:47.966Z,62791.61
2023-04-05T02:59:50.661Z,62794.34
2023-04-05T03:00:52.899Z,62787.52
2023-04-05T03:01:54.882Z,62802.63
2023-04-05T03:02:56.939Z,62789.70
2023-04-05T03:03:59.201Z,62801.00
2023-04-05T03:05:01.279Z,62788.34
2023-04-05T03:06:05.135Z,62785.75
2023-04-05T03:07:07.027Z,62793.38
2023-04-05T03:08:08.930Z,62782.90
2023-04-05T03:09:13.295Z,62790.11
2023-04-05T03:10:15.957Z,62790.11
2023-04-05T03:11:17.920Z,62785.21
2023-04-05T03:12:19.938Z,62786.17
2023-04-05T03:13:21.865Z,62781.41
2023-04-05T03:14:23.830Z,62786.85
2023-04-05T03:15:25.822Z,62782.08
2023-04-05T03:16:28.299Z,62775.12
2023-04-05T03:17:30.229Z,62791.75
2023-04-05T03:18:32.778Z,62795.55
2023-04-05T03:19:35.095Z,62809.99
2023-04-05T03:20:37.331Z,62796.65
2023-04-05T03:21:39.217Z,62789.02
2023-04-05T03:22:41.209Z,62794.46
2023-04-05T03:23:43.552Z,62800.74
2023-04-05T03:24:45.423Z,62791.07
2023-04-05T03:25:47.346Z,62794.46
2023-04-05T03:26:49.577Z,62805.76
2023-04-05T03:27:51.435Z,62791.19
2023-04-05T03:28:53.381Z,62789.02
2023-04-05T03:29:55.236Z,62785.75
2023-04-05T03:30:59.157Z,62796.65
2023-04-05T03:32:02.201Z,62800.74
2023-04-05T03:33:05.492Z,62794.34
2023-04-05T03:34:07.945Z,62786.31
2023-04-05T03:35:09.959Z,62787.52
2023-04-05T03:36:12.309Z,62801.00
2023-04-05T03:37:15.245Z,62795.97
2023-04-05T03:38:17.517Z,62790.93
2023-04-05T03:39:19.401Z,62788.22
2023-04-05T03:40:22.703Z,62793.38
2023-04-05T03:41:24.595Z,62802.91
2023-04-05T03:42:26.612Z,62798.01
2023-04-05T03:43:28.662Z,62799.36
2023-04-05T03:44:30.529Z,62797.47
2023-04-05T03:45:33.068Z,62795.55
2023-04-05T03:46:35.323Z,62791.19
2023-04-05T03:47:39.279Z,62801.28
2023-04-05T03:48:41.260Z,62811.34
2023-04-05T03:49:44.286Z,62806.86
2023-04-05T03:50:47.096Z,62798.57
2023-04-05T03:51:49.004Z,62795.84
2023-04-05T03:52:50.903Z,62785.33
2023-04-05T03:53:54.041Z,62808.91
2023-04-05T03:54:56.289Z,62803.73
2023-04-05T03:55:58.177Z,62805.36
2023-04-05T03:57:00.677Z,62814.49
2023-04-05T03:58:02.898Z,62813.11
2023-04-05T03:59:04.824Z,62810.80
2023-04-05T04:00:09.014Z,62809.84
2023-04-05T04:01:12.041Z,62820.61
2023-04-05T04:02:14.016Z,62804.27
2023-04-05T04:03:16.038Z,62802.09
2023-04-05T04:04:18.025Z,62797.98
2023-04-05T04:05:20.403Z,62795.02
2023-04-05T04:06:22.707Z,62801.54
2023-04-05T04:07:24.991Z,62805.36
2023-04-05T04:08:26.927Z,62796.65
2023-04-05T04:09:28.790Z,62797.87
2023-04-05T04:10:31.791Z,62790.65
2023-04-05T04:11:33.680Z,62795.97
2023-04-05T04:12:36.058Z,62803.45
2023-04-05T04:13:38.435Z,62809.31
2023-04-05T04:14:40.412Z,62824.16
2023-04-05T04:15:42.509Z,62820.34
2023-04-05T04:16:45.073Z,62802.63
2023-04-05T04:17:47.133Z,62793.38
2023-04-05T04:18:49.231Z,62801.28
2023-04-05T04:19:51.166Z,62796.65
2023-04-05T04:20:53.148Z,62807.00
2023-04-05T04:21:55.025Z,62814.07
2023-04-05T04:22:59.085Z,62802.63
2023-04-05T04:24:01.173Z,62803.17
2023-04-05T04:25:04.530Z,62801.00
2023-04-05T04:26:06.658Z,62809.71
2023-04-05T04:27:08.527Z,62812.55
2023-04-05T04:28:10.819Z,62804.80
2023-04-05T04:29:13.497Z,62816.25
2023-04-05T04:30:15.915Z,62812.98
2023-04-05T04:31:18.557Z,62809.99
2023-04-05T04:32:20.524Z,62808.63
2023-04-05T04:33:22.488Z,62809.17
2023-04-05T04:34:24.742Z,62804.80
2023-04-05T04:35:28.381Z,62792.71
2023-04-05T04:36:31.697Z,62793.38
2023-04-05T04:37:33.736Z,62801.00
2023-04-05T04:38:35.723Z,62792.15
2023-04-05T04:39:37.980Z,62797.73
2023-04-05T04:40:40.142Z,62790.11
2023-04-05T04:41:44.501Z,62794.88
2023-04-05T04:42:46.472Z,62802.09
2023-04-05T04:43:50.277Z,62784.11
2023-04-05T04:44:52.270Z,62781.41
2023-04-05T04:45:54.180Z,62784.67
2023-04-05T04:46:56.753Z,62795.41
2023-04-05T04:47:58.698Z,62794.20
2023-04-05T04:49:01.408Z,62789.02
2023-04-05T04:50:04.827Z,62794.46
2023-04-05T04:51:07.383Z,62783.71
2023-04-05T04:52:09.257Z,62794.46
2023-04-05T04:53:12.024Z,62801.95
2023-04-05T04:54:14.252Z,62804.12
2023-04-05T04:55:16.098Z,62807.54
2023-04-05T04:56:18.247Z,62805.90
2023-04-05T04:57:20.110Z,62796.09
2023-04-05T04:58:22.091Z,62807.54
2023-04-05T04:59:24.088Z,62795.55
2023-04-05T05:00:26.244Z,62795.55
2023-04-05T05:01:28.463Z,62810.55
2023-04-05T05:02:31.490Z,62803.17
2023-04-05T05:03:34.645Z,62786.85
2023-04-05T05:04:36.553Z,62782.74
2023-04-05T05:05:46.109Z,62794.46
2023-04-05T05:06:51.961Z,62801.67
2023-04-05T05:07:54.750Z,62802.63
2023-04-05T05:08:56.650Z,62801.95
2023-04-05T05:09:58.706Z,62800.88
2023-04-05T05:11:00.881Z,62810.55
2023-04-05T05:12:03.049Z,62807.39
2023-04-05T05:13:05.060Z,62800.74
2023-04-05T05:14:07.194Z,62809.71
2023-04-05T05:15:10.620Z,62808.63
2023-04-05T05:16:14.382Z,62806.44
2023-04-05T05:17:16.318Z,62814.36
2023-04-05T05:18:19.300Z,62815.15
2023-04-05T05:19:21.201Z,62800.88
2023-04-05T05:21:34.960Z,62811.90
2023-04-05T05:22:38.042Z,62807.54
2023-04-05T05:23:40.064Z,62812.44
2023-04-05T05:24:43.671Z,62810.55
2023-04-05T05:25:45.563Z,62807.54
2023-04-05T05:26:47.628Z,62815.57
2023-04-05T05:27:50.482Z,62808.91
2023-04-05T05:28:52.400Z,62816.66
2023-04-05T05:29:54.760Z,62807.00
2023-04-05T05:30:56.884Z,62818.84
2023-04-05T05:31:59.296Z,62815.57
2023-04-05T05:33:01.304Z,62823.46
2023-04-05T05:34:03.472Z,62820.34
2023-04-05T05:35:10.224Z,62821.69
2023-04-05T05:36:12.870Z,62820.05
2023-04-05T05:37:15.145Z,62827.15
2023-04-05T05:38:18.150Z,62833.13
2023-04-05T05:39:20.800Z,62833.27
2023-04-05T05:40:23.235Z,62830.54
2023-04-05T05:41:25.897Z,62825.52
2023-04-05T05:42:27.789Z,62824.96
2023-04-05T05:43:29.679Z,62840.49
2023-04-05T05:44:32.039Z,62805.48
2023-04-05T05:45:35.166Z,62814.61
2023-04-05T05:46:37.352Z,62818.42
2023-04-05T05:47:39.440Z,62818.42
2023-04-05T05:48:41.563Z,62836.68
2023-04-05T05:49:43.483Z,62816.25
2023-04-05T05:50:45.568Z,62823.21
2023-04-05T05:51:47.435Z,62813.54
2023-04-05T05:52:49.960Z,62813.65
2023-04-05T05:53:51.953Z,62823.07
2023-04-05T05:54:53.833Z,62823.07
2023-04-05T05:55:55.870Z,62828.23
2023-04-05T05:56:57.845Z,62840.21
2023-04-05T05:57:59.840Z,62840.89
2023-04-05T05:59:02.700Z,62818.84
2023-04-05T06:00:06.794Z,62817.88
2023-04-05T06:01:08.949Z,62818.98
2023-04-05T06:02:11.464Z,62812.44
2023-04-05T06:03:13.568Z,62808.21
2023-04-05T06:04:16.747Z,62814.89
2023-04-05T06:05:19.375Z,62813.65
2023-04-05T06:06:23.047Z,62832.34
2023-04-05T06:07:25.277Z,62831.50
2023-04-05T06:08:28.659Z,62815.82
2023-04-05T06:09:30.653Z,62827.55
2023-04-05T06:10:35.512Z,62828.23
2023-04-05T06:11:46.338Z,62846.21
2023-04-05T06:12:41.309Z,62845.65
2023-04-05T06:13:43.955Z,62849.34
2023-04-05T06:14:46.496Z,62840.21
2023-04-05T06:15:49.045Z,62837.36
2023-04-05T06:16:51.648Z,62837.36
2023-04-05T06:17:55.157Z,62842.94
2023-04-05T06:18:57.557Z,62825.77
2023-04-05T06:20:00.104Z,62830.82
2023-04-05T06:21:02.373Z,62828.36
2023-04-05T06:22:04.411Z,62834.09
2023-04-05T06:23:07.261Z,62831.50
2023-04-05T06:24:09.243Z,62834.91
2023-04-05T06:25:11.232Z,62837.50
2023-04-05T06:26:19.884Z,62838.46
2023-04-05T06:27:21.866Z,62843.48
2023-04-05T06:28:24.704Z,62839.13
2023-04-05T06:29:26.660Z,62847.85
2023-04-05T06:30:28.931Z,62838.71
2023-04-05T06:31:33.030Z,62846.33
2023-04-05T06:32:35.221Z,62849.60
2023-04-05T06:33:37.188Z,62853.83
2023-04-05T06:34:39.059Z,62856.56
2023-04-05T06:35:40.956Z,62863.10
2023-04-05T06:36:43.411Z,62871.01
2023-04-05T06:37:45.391Z,62857.91
2023-04-05T06:38:47.342Z,62866.37
2023-04-05T06:39:49.191Z,62865.28
2023-04-05T06:40:51.175Z,62862.00
2023-04-05T06:41:53.059Z,62859.41
2023-04-05T06:42:54.927Z,62858.32
2023-04-05T06:43:57.631Z,62865.14
2023-04-05T06:44:59.576Z,62865.28
2023-04-05T06:46:01.456Z,62880.00
2023-04-05T06:47:03.527Z,62886.66
2023-04-05T06:48:05.790Z,62875.63
2023-04-05T06:49:07.723Z,62891.17
2023-04-05T06:50:11.328Z,62874.13
2023-04-05T06:51:14.596Z,62868.55
2023-04-05T06:52:17.698Z,62880.11
2023-04-05T06:53:19.588Z,62880.25
2023-04-05T06:54:21.457Z,62897.55
2023-04-05T06:55:23.306Z,62900.14
2023-04-05T06:56:25.477Z,62894.30
2023-04-05T06:57:27.840Z,62894.30
2023-04-05T06:58:29.996Z,62894.84
2023-04-05T06:59:32.150Z,62903.84
2023-04-05T07:00:34.422Z,62914.87
2023-04-05T07:01:36.429Z,62914.33
2023-04-05T07:02:39.534Z,62912.14
2023-04-05T07:03:41.487Z,62906.01
2023-04-05T07:04:43.530Z,62906.82
2023-04-05T07:05:54.054Z,62907.53
2023-04-05T07:06:56.303Z,62901.78
2023-04-05T07:07:59.374Z,62895.37
2023-04-05T07:09:01.827Z,62909.96
2023-04-05T07:10:06.375Z,62909.71
2023-04-05T07:11:08.388Z,62909.96
2023-04-05T07:12:11.135Z,62915.97
2023-04-05T07:13:13.447Z,62929.88
2023-04-05T07:14:15.439Z,62918.00
2023-04-05T07:15:17.388Z,62910.92
2023-04-05T07:16:19.490Z,62910.64
2023-04-05T07:17:21.534Z,62904.52
2023-04-05T07:18:23.925Z,62923.59
2023-04-05T07:19:26.098Z,62930.00
2023-04-05T07:20:28.032Z,62900.28
2023-04-05T07:21:29.901Z,62911.88
2023-04-05T07:22:33.498Z,62914.73
2023-04-05T07:23:35.571Z,62912.81
2023-04-05T07:24:37.527Z,62923.47
2023-04-05T07:25:40.710Z,62930.13
2023-04-05T07:26:42.807Z,62911.60
2023-04-05T07:27:44.800Z,62913.23
2023-04-05T07:28:47.864Z,62915.68
2023-04-05T07:29:50.142Z,62919.78
2023-04-05T07:30:52.175Z,62926.19
2023-04-05T07:31:54.103Z,62915.68
2023-04-05T07:32:56.187Z,62923.87
2023-04-05T07:34:00.078Z,62915.01
2023-04-05T07:35:02.216Z,62926.32
2023-04-05T07:36:04.710Z,62928.07
2023-04-05T07:37:07.150Z,62919.24
2023-04-05T07:38:09.180Z,62926.75
2023-04-05T07:39:11.079Z,62919.24
2023-04-05T07:40:13.305Z,62927.40
2023-04-05T07:41:15.964Z,62946.79
2023-04-05T07:42:18.180Z,62952.49
2023-04-05T07:43:20.511Z,62952.49
2023-04-05T07:44:23.067Z,62951.41
2023-04-05T07:45:25.625Z,62932.87
2023-04-05T07:46:27.981Z,62941.59
2023-04-05T07:47:34.438Z,62954.41
2023-04-05T07:48:36.560Z,62954.66
2023-04-05T07:49:38.417Z,62947.18
2023-04-05T07:50:40.733Z,62953.45
2023-04-05T07:51:43.380Z,62963.95
2023-04-05T07:52:45.437Z,62971.88
2023-04-05T07:53:47.461Z,62989.33
2023-04-05T07:54:50.460Z,62967.47
2023-04-05T07:55:52.942Z,62978.12
2023-04-05T07:56:54.954Z,62976.73
2023-04-05T07:57:56.952Z,62988.48
2023-04-05T07:58:59.328Z,62980.86
2023-04-05T08:00:03.432Z,62977.04
2023-04-05T08:01:05.885Z,62976.48
2023-04-05T08:02:14.650Z,62966.93
2023-04-05T08:03:11.770Z,62991.35
2023-04-05T08:04:13.918Z,62989.04
2023-04-05T08:05:16.980Z,62972.67
2023-04-05T08:06:19.656Z,62983.03
2023-04-05T08:07:22.380Z,62989.04
2023-04-05T08:08:24.739Z,62989.16
2023-04-05T08:09:26.644Z,62987.40
2023-04-05T08:10:28.882Z,62993.95
2023-04-05T08:11:31.046Z,63000.48
2023-04-05T08:12:33.643Z,63002.68
2023-04-05T08:13:36.015Z,62991.22
2023-04-05T08:14:38.535Z,63002.68
2023-04-05T08:15:40.458Z,62991.35
2023-04-05T08:16:43.394Z,62994.20
2023-04-05T08:17:45.490Z,63017.68
2023-04-05T08:18:47.641Z,63009.77
2023-04-05T08:19:49.744Z,63010.31
2023-04-05T08:20:54.143Z,62996.13
2023-04-05T08:21:56.033Z,62995.28
2023-04-05T08:22:57.976Z,63014.68
2023-04-05T08:23:59.940Z,63015.22
2023-04-05T08:25:01.940Z,63007.71
2023-04-05T08:26:04.463Z,63005.95
2023-04-05T08:27:06.486Z,63013.58
2023-04-05T08:28:08.388Z,63023.95
2023-04-05T08:29:10.999Z,63031.04
2023-04-05T08:30:13.769Z,63010.31
2023-04-05T08:31:15.765Z,63011.83
2023-04-05T08:32:19.535Z,63004.61
2023-04-05T08:33:21.529Z,62992.43
2023-04-05T08:34:23.633Z,62996.24
2023-04-05T08:35:25.766Z,62997.21
2023-04-05T08:36:28.474Z,62997.21
2023-04-05T08:37:34.315Z,63011.95
2023-04-05T08:38:36.771Z,63003.22
2023-04-05T08:39:38.840Z,62992.86
2023-04-05T08:40:46.524Z,62988.48
2023-04-05T08:43:10.283Z,63004.99
2023-04-05T08:44:13.139Z,63001.16
2023-04-05T08:45:18.516Z,63016.18
2023-04-05T08:46:22.157Z,63005.95
2023-04-05T08:47:24.936Z,63006.92
2023-04-05T08:48:29.345Z,63010.31
2023-04-05T08:49:31.636Z,62990.93
2023-04-05T08:50:34.078Z,63015.51
2023-04-05T08:51:37.748Z,63007.03
2023-04-05T08:52:42.709Z,63002.12
2023-04-05T08:53:44.828Z,63008.00
2023-04-05T08:54:47.372Z,63000.62
2023-04-05T08:55:53.239Z,63000.48
2023-04-05T08:56:57.314Z,63008.13
2023-04-05T08:58:01.211Z,63003.89
2023-04-05T08:59:06.899Z,63004.86
2023-04-05T09:00:11.456Z,63012.48
2023-04-05T09:01:14.823Z,63012.08
2023-04-05T09:02:18.970Z,63020.13
2023-04-05T09:03:23.804Z,63015.36
2023-04-05T09:04:29.824Z,63011.41
2023-04-05T09:05:35.295Z,63019.17
2023-04-05T09:06:38.211Z,63019.32
2023-04-05T09:07:42.421Z,63020.00
2023-04-05T09:08:44.728Z,63005.95
2023-04-05T09:09:50.493Z,63008.80
2023-04-05T09:10:52.537Z,63023.41
2023-04-05T09:11:56.758Z,63019.59
2023-04-05T09:12:59.688Z,63019.59
2023-04-05T09:14:08.365Z,63024.62
2023-04-05T09:15:10.915Z,63029.96
2023-04-05T09:16:15.988Z,63021.77
2023-04-05T09:17:20.885Z,63034.07
2023-04-05T09:18:27.068Z,63029.15
2023-04-05T09:19:27.046Z,63024.49
2023-04-05T09:20:30.177Z,63020.38
2023-04-05T09:21:52.964Z,63029.96
2023-04-05T09:22:56.695Z,63023.41
2023-04-05T09:23:58.754Z,63013.29
2023-04-05T09:25:01.236Z,63021.35
2023-04-05T09:26:18.139Z,63023.95
2023-04-05T09:27:23.798Z,63030.07
2023-04-05T09:28:41.966Z,63029.11
2023-04-05T09:29:48.925Z,63029.96
2023-04-05T09:30:51.383Z,63032.14
2023-04-05T09:31:54.440Z,63033.23
2023-04-05T09:32:57.247Z,63045.11
2023-04-05T09:34:06.041Z,63036.09
2023-04-05T09:35:11.854Z,63045.11
2023-04-05T09:36:18.402Z,63047.96
2023-04-05T09:37:21.557Z,63046.45
2023-04-05T09:38:44.755Z,63047.84
2023-04-05T09:39:50.133Z,63050.98
2023-04-05T09:40:52.679Z,63051.91
2023-04-05T09:42:10.174Z,63060.93
2023-04-05T09:43:13.737Z,63054.64
2023-04-05T09:44:15.752Z,63050.70
2023-04-05T09:45:17.771Z,63052.45
2023-04-05T09:46:31.608Z,63060.39
2023-04-05T09:47:33.844Z,63054.22
2023-04-05T09:48:47.126Z,63055.61
2023-04-05T09:49:49.306Z,63046.32
2023-04-05T09:51:00.892Z,63055.90
2023-04-05T09:51:59.606Z,63048.52
2023-04-05T09:54:17.607Z,63063.37
2023-04-05T09:56:38.717Z,63059.00
2023-04-05T09:57:41.712Z,63060.52
2023-04-05T09:58:43.691Z,63069.93
2023-04-05T09:59:46.689Z,63075.14
2023-04-05T10:00:50.231Z,63076.89
2023-04-05T10:01:52.479Z,63087.94
2023-04-05T10:02:56.103Z,63089.86
2023-04-05T10:04:00.200Z,63090.68
2023-04-05T10:05:09.593Z,63084.79
2023-04-05T10:06:12.277Z,63102.68
2023-04-05T10:07:16.525Z,63104.19
2023-04-05T10:08:19.029Z,63115.12
2023-04-05T10:09:21.492Z,63115.12
2023-04-05T10:10:24.300Z,63111.85
2023-04-05T10:11:27.890Z,63117.98
2023-04-05T10:12:32.803Z,63113.06
2023-04-05T10:13:36.061Z,63118.65
2023-04-05T10:14:38.392Z,63115.12
2023-04-05T10:15:44.283Z,63127.68
2023-04-05T10:18:12.016Z,63140.93
2023-04-05T10:19:17.768Z,63130.96
2023-04-05T10:20:22.964Z,63138.21
2023-04-05T10:21:28.758Z,63141.89
2023-04-05T10:22:37.226Z,63141.35
2023-04-05T10:23:42.948Z,63152.95
2023-04-05T10:26:02.820Z,63168.80
2023-04-05T10:27:23.839Z,63157.19
2023-04-05T10:28:35.797Z,63161.03
2023-04-05T10:30:00.173Z,63171.95
2023-04-05T10:31:11.454Z,63166.60
2023-04-05T10:32:20.364Z,63174.80
2023-04-05T10:33:32.158Z,63167.70
2023-04-05T10:34:43.686Z,63175.47
2023-04-05T10:36:04.319Z,63175.66
2023-04-05T10:37:06.914Z,63164.42
2023-04-05T10:38:28.556Z,63167.16
2023-04-05T10:40:47.186Z,63184.64
2023-04-05T10:42:02.642Z,63188.89
2023-04-05T10:43:08.442Z,63195.32
2023-04-05T10:44:22.573Z,63192.96
2023-04-05T10:45:17.947Z,63195.45
2023-04-05T10:46:20.531Z,63190.23
2023-04-05T10:47:25.012Z,63193.81
2023-04-05T10:49:04.579Z,63189.27
2023-04-05T10:50:10.614Z,63197.20
2023-04-05T10:51:12.975Z,63203.09
2023-04-05T10:52:16.909Z,63215.68
2023-04-05T10:53:21.958Z,63208.82
2023-04-05T10:54:25.022Z,63217.43
2023-04-05T10:55:27.745Z,63209.90
2023-04-05T10:56:30.772Z,63226.06
2023-04-05T10:57:33.731Z,63213.07
2023-04-05T10:58:40.616Z,63224.83
2023-04-05T10:59:45.808Z,63229.34
2023-04-05T11:00:49.787Z,63224.83
2023-04-05T11:01:53.566Z,63229.46
2023-04-05T11:02:56.240Z,63232.74
2023-04-05T11:04:14.153Z,63241.48
2023-04-05T11:05:36.396Z,63249.69
2023-04-05T11:06:39.778Z,63264.70
2023-04-05T11:07:43.654Z,63281.95
2023-04-05T11:08:47.098Z,63269.49
2023-04-05T11:10:04.641Z,63275.82
2023-04-05T11:11:08.205Z,63275.39
2023-04-05T11:12:10.166Z,63275.28
2023-04-05T11:13:12.745Z,63278.37
2023-04-05T11:14:35.621Z,63278.80
2023-04-05T11:15:37.856Z,63267.31
2023-04-05T11:16:40.468Z,63258.97
2023-04-05T11:17:42.535Z,63265.13
2023-04-05T11:18:50.925Z,63262.93
2023-04-05T11:21:08.591Z,63273.75
2023-04-05T11:22:12.509Z,63272.67
2023-04-05T11:23:17.596Z,63270.05
2023-04-05T11:24:19.635Z,63276.90
2023-04-05T11:25:24.123Z,63269.49
2023-04-05T11:26:45.384Z,63277.16
2023-04-05T11:27:49.556Z,63294.66
2023-04-05T11:28:55.292Z,63287.85
2023-04-05T11:30:03.205Z,63291.37
2023-04-05T11:31:19.884Z,63278.37
2023-04-05T11:32:23.030Z,63292.48
2023-04-05T11:33:55.684Z,63304.25
2023-04-05T11:35:07.398Z,63302.20
2023-04-05T11:36:10.515Z,63298.24
2023-04-05T11:37:14.863Z,63299.21
2023-04-05T11:38:22.692Z,63294.53
2023-04-05T11:39:25.596Z,63303.95
2023-04-05T11:40:33.982Z,63298.37
2023-04-05T11:41:37.328Z,63300.25
2023-04-05T11:42:40.506Z,63302.87
2023-04-05T11:43:43.964Z,63310.41
2023-04-05T11:44:47.682Z,63322.85
2023-04-05T11:45:49.981Z,63312.59
2023-04-05T11:46:53.751Z,63312.29
2023-04-05T11:47:57.268Z,63320.80
2023-04-05T11:48:59.463Z,63328.45
2023-04-05T11:50:01.796Z,63330.22
2023-04-05T11:51:08.739Z,63335.45
2023-04-05T11:52:19.127Z,63345.41
2023-04-05T11:53:21.168Z,63347.18
2023-04-05T11:54:33.315Z,63346.08
2023-04-05T11:55:39.113Z,63355.03
2023-04-05T11:56:46.439Z,63353.09
2023-04-05T11:57:52.134Z,63358.12
2023-04-05T12:00:14.357Z,63380.56
2023-04-05T12:01:18.128Z,63378.25
2023-04-05T12:02:21.455Z,63386.46
2023-04-05T12:03:23.635Z,63382.64
2023-04-05T12:04:26.919Z,63386.16
2023-04-05T12:05:49.080Z,63375.63
2023-04-05T12:08:21.398Z,63377.17
2023-04-05T12:09:23.293Z,63360.61
2023-04-05T12:10:25.456Z,63341.70
2023-04-05T12:11:29.303Z,63334.59
2023-04-05T12:12:41.957Z,63340.37
2023-04-05T12:13:44.934Z,63334.48
2023-04-05T12:14:47.082Z,63330.09
2023-04-05T12:15:49.292Z,63347.49
2023-04-05T12:16:51.443Z,63352.41
2023-04-05T12:17:53.395Z,63343.77
2023-04-05T12:18:58.297Z,63347.49
2023-04-05T12:20:01.174Z,63348.16
2023-04-05T12:21:08.269Z,63359.53
2023-04-05T12:22:11.010Z,63347.86
2023-04-05T12:23:14.249Z,63353.63
2023-04-05T12:24:16.411Z,63352.11
2023-04-05T12:25:19.780Z,63357.58
2023-04-05T12:26:22.500Z,63361.41
2023-04-05T12:27:24.700Z,63370.59
2023-04-05T12:28:46.820Z,63354.73
2023-04-05T12:30:09.456Z,63358.66
2023-04-05T12:31:11.588Z,63368.28
2023-04-05T12:32:14.292Z,63367.74
2023-04-05T12:33:32.846Z,63357.58
2023-04-05T12:34:36.150Z,63366.87
2023-04-05T12:35:38.610Z,63357.99
2023-04-05T12:36:45.246Z,63358.12
2023-04-05T12:37:49.826Z,63344.98
2023-04-05T12:38:54.128Z,63352.11
2023-04-05T12:39:56.229Z,63337.63
2023-04-05T12:41:05.686Z,63345.84
2023-04-05T12:42:11.361Z,63344.20
2023-04-05T12:43:13.269Z,63349.80
2023-04-05T12:44:16.230Z,63331.60
2023-04-05T12:45:18.764Z,63337.09
2023-04-05T12:46:21.030Z,63324.86
2023-04-05T12:47:23.111Z,63326.27
2023-04-05T12:48:26.807Z,63329.98
2023-04-05T12:49:29.615Z,63331.06